Flight Track Log - Related Links

Times and Time Zones

All times are in EDT time to prevent confusion due to time zone crossing. See the LXJ541 flight status page for this flight to view local times or setup timezone preferences in your user account.

Time Position Orientation Groundspeed Altitude Reporting Facility
EDT Latitude Longitude Course Direction KTS MPH feet Rate Location/Type
Sun 06:27:45 PM 40.6167 -73.8000 138° Southeast 180 207 2,100  Level New York TRACON
Sun 06:29:52 PM 40.5194 -73.6867 138° Southeast 202 232 5,900 2,439 Climbing New York Center
Sun 06:30:52 PM 40.4667 -73.6328 142° Southeast 249 287 9,700 3,769 Climbing New York Center
Sun 06:31:53 PM 40.3914 -73.5561 142° Southeast 300 345 13,500 3,100 Climbing New York Center
Sun 06:32:52 PM 40.3114 -73.4956 150° Southeast 342 394 15,900 1,261 Climbing New York Center
Sun 06:33:52 PM 40.2011 -73.4939 179° South 377 434 16,000 1,698 Climbing New York Center
Sun 06:36:17 PM 39.9789 -73.6419 207° Southwest 371 427 21,700 2,049 Climbing Washington Center
Sun 06:37:17 PM 39.8842 -73.7069 208° Southwest 376 433 23,000 650 Climbing Washington Center
Sun 06:38:17 PM 39.7850 -73.7717 207° Southwest 393 452 23,000  Level Washington Center
Sun 06:39:17 PM 39.6983 -73.8278 182° South 398 458 23,000 950 Level Washington Center
Sun 06:40:17 PM 39.6036 -73.8919 208° Southwest 398 458 24,900 1,500 Climbing Washington Center
Sun 06:41:17 PM 39.5064 -73.9536 206° Southwest 393 452 26,000 500 Climbing Washington Center
Sun 06:42:17 PM 39.4136 -74.0200 209° Southwest 387 445 25,900  Descending Washington Center
Sun 06:43:17 PM 39.3292 -74.1078 219° Southwest 393 452 26,000 50 Climbing Washington Center
Sun 06:44:17 PM 39.2469 -74.1981 220° Southwest 393 452 26,000  Level Washington Center
Sun 06:45:17 PM 39.1667 -74.2853 220° Southwest 393 452 26,000  Level Washington Center
Sun 06:46:17 PM 39.0861 -74.3722 220° Southwest 388 447 26,000  Level Washington Center
Sun 06:47:17 PM 39.0078 -74.4564 220° Southwest 381 438 26,000  Level Washington Center
Sun 06:48:17 PM 38.9253 -74.5456 220° Southwest 381 438 26,000  Level Washington Center
Sun 06:49:17 PM 38.8469 -74.6322 221° Southwest 381 438 26,000  Level Washington Center
Sun 06:50:17 PM 38.7661 -74.7183 220° Southwest 381 438 26,000  Level Washington Center
Sun 06:51:17 PM 38.6833 -74.8044 219° Southwest 381 438 26,000  Level Washington Center
Sun 06:52:17 PM 38.6028 -74.8931 221° Southwest 381 438 26,000 -500 Level Washington Center
Sun 06:53:17 PM 38.5239 -74.9761 219° Southwest 381 438 25,000 -1,250 Descending Washington Center
Sun 06:54:17 PM 38.4408 -75.0617 219° Southwest 381 438 23,500 -1,500 Descending Washington Center
Sun 06:55:17 PM 38.3619 -75.1469 220° Southwest 381 438 22,000 -1,400 Descending Washington Center
Sun 06:56:17 PM 38.2831 -75.2347 221° Southwest 375 432 20,700 -1,200 Descending Washington Center
Sun 06:57:17 PM 38.2019 -75.3169 219° Southwest 380 437 19,600 -1,150 Descending Washington Center
Sun 06:58:17 PM 38.1228 -75.3992 219° Southwest 375 432 18,400 -900 Descending Washington Center
Sun 06:59:17 PM 38.0417 -75.4783 218° Southwest 375 432 17,800 -1,000 Descending Washington Center
Sun 07:00:17 PM 37.9542 -75.5469 212° Southwest 375 432 16,400 -1,350 Descending Washington Center
Sun 07:01:17 PM 37.8686 -75.6103 210° Southwest 370 426 15,100 -1,250 Descending Washington Center
Sun 07:02:17 PM 37.7811 -75.6758 211° Southwest 370 426 13,900 -1,257 Descending Washington Center
Sun 07:03:02 PM 37.7058 -75.7283 209° Southwest 358 412 12,900 -1,200 Descending Washington Center
Sun 07:03:17 PM 37.6997 -75.7414 239° Southwest 365 420 12,700 -1,254 Descending Washington Center
Sun 07:04:09 PM 37.6142 -75.8017 209° Southwest 348 400 11,500 -1,221 Descending Washington Center
Sun 07:05:10 PM 37.5283 -75.8667 211° Southwest 353 406 10,400 -694 Descending Washington Center
Sun 07:06:10 PM 37.4447 -75.9292 211° Southwest 347 399 10,100 -157 Descending Washington Center
Sun 07:07:05 PM 37.3675 -75.9864 210° Southwest 349 402 10,100  Level Washington Center
Sun 07:08:05 PM 37.2756 -76.0331 202° Southwest 353 406 10,100 -298 Level Washington Center
Sun 07:09:06 PM 37.1939 -76.0717 201° Southwest 274 315 9,500 -1,131 Descending Washington Center
Sun 07:10:07 PM 37.1311 -76.1181 211° Southwest 264 304 7,800 -1,795 Descending Washington Center
Sun 07:11:13 PM 37.0706 -76.1803 219° Southwest 269 310 5,700 -1,388 Descending Washington Center
Sun 07:12:08 PM 37.0200 -76.2317 219° Southwest 258 297 5,000 -661 Descending Washington Center
Sun 07:13:02 PM 36.9719 -76.2756 216° Southwest 221 254 4,500 -1,046 Descending Washington Center
Sun 07:13:57 PM 36.9217 -76.3142 212° Southwest 236 272 3,100 -730 Descending Washington Center
Sun 07:14:57 PM 36.8672 -76.3475 206° Southwest 198 228 3,100 -378 Level Washington Center
Sun 07:16:04 PM 36.8278 -76.3003 136° Southeast 165 190 2,300 -797 Descending Washington Center
Sun 07:17:05 PM 36.8386 -76.2589 72° East 133 153 1,400 -783 Descending Washington Center
Sun 07:17:59 PM 36.8636 -76.2358 36° Northeast 119 137 800 -667 Descending Washington Center

Login

Don't have an account? Register now (free) for customized features, flight alerts, and more!